Latest Weather Observations for Perth Airport

IDW60801

Issued at 4:01 pm WST Monday 2 May 2016 (issued every 30 minutes, with the page automatically refreshed every 10 minutes)

About weather observations | Map of weather stations | Latest weather observations for WA | Other Formats
Station Details ID: 009021 Name: PERTH AIRPORT Lat: -31.93 Lon: 115.98 Height: 15.4 m
Data from the previous 72 hours. | See also: Recent months at Perth Airport
Date/Time
WST
Temp
°C
App
Temp
°C
Dew
Point
Rel
Hum
%
Delta-T
°C
Wind Press
QNH
hPa
Press
MSL
hPa
Rain
since 9 am
mm
Dir
 
Spd
km/h
Gust
km/h
Spd
kts
Gust
kts
02/03:30pm 20.5 18.4 13.5 64 4.0 W 17 22 9 12 1020.0 - 0.0
02/03:00pm 19.9 18.3 14.0 69 3.4 W 15 20 8 11 1020.2 1020.2 0.0
02/02:30pm 19.5 18.2 13.7 69 3.3 SSW 13 20 7 11 1020.4 - 0.0
02/02:00pm 19.0 16.8 14.3 74 2.7 W 19 24 10 13 1020.4 - 0.0
02/01:30pm 19.3 17.6 13.7 70 3.2 NW 15 22 8 12 1020.6 - 0.0
02/01:00pm 19.6 17.8 14.4 72 3.0 NW 17 24 9 13 1020.9 - 0.0
02/12:30pm 17.5 16.4 14.4 82 1.8 W 13 17 7 9 1021.5 - 0.0
02/12:00pm 18.7 16.9 12.0 65 3.7 W 13 19 7 10 1021.7 1021.7 0.0
02/11:30am 19.5 17.5 11.5 60 4.4 NNW 13 19 7 10 1021.8 - 0.0
02/11:00am 18.2 17.0 11.6 65 3.6 N 9 11 5 6 1022.1 - 0.0
02/10:30am 17.4 16.1 11.3 67 3.3 N 9 11 5 6 1022.2 - 0.0
02/10:00am 16.5 15.0 10.7 68 3.1 N 9 13 5 7 1022.3 - 0.0
02/09:30am 16.2 14.7 10.5 69 3.0 N 9 13 5 7 1022.4 - 0.0
02/09:00am 14.4 12.4 10.2 76 2.2 N 11 15 6 8 1022.3 1022.3 0.0
02/08:30am 13.2 11.0 9.5 78 1.9 NNE 11 13 6 7 1022.4 - 0.0
02/08:00am 12.6 10.7 9.0 79 1.8 N 9 11 5 6 1022.3 - 0.0
02/07:30am 10.4 8.4 8.6 89 0.9 N 9 11 5 6 1022.0 - 0.0
02/07:00am 10.3 8.3 8.5 89 0.9 NNE 9 13 5 7 1021.9 - 0.0
02/06:30am 9.7 7.2 8.2 90 0.7 NNE 11 13 6 7 1021.6 - 0.0
02/06:00am 9.7 7.3 8.5 92 0.6 N 11 13 6 7 1021.6 1021.6 0.0
02/05:30am 9.7 7.6 8.2 90 0.7 NNE 9 11 5 6 1021.6 - 0.0
02/05:00am 9.5 7.3 8.0 90 0.7 NNE 9 11 5 6 1021.5 - 0.0
02/04:30am 9.8 7.7 8.4 91 0.7 WNW 9 11 5 6 1021.2 - 0.0
02/04:00am 10.5 8.6 8.9 90 0.8 WNW 9 11 5 6 1020.9 - 0.0
02/03:30am 10.6 8.7 9.2 91 0.7 WNW 9 11 5 6 1020.9 - 0.0
02/03:00am 10.1 8.5 8.9 92 0.6 WNW 7 9 4 5 1021.0 1021.0 0.0
02/02:30am 9.1 7.4 8.3 95 0.4 WNW 7 11 4 6 1021.2 - 0.0
02/02:00am 8.0 6.3 7.4 96 0.3 S 6 7 3 4 1021.5 - 0.0
02/01:30am 8.4 7.9 7.8 96 0.3 CALM 0 0 0 0 1021.5 - 0.0
02/01:00am 8.9 8.5 8.3 96 0.3 CALM 0 6 0 3 1021.6 - 0.0
02/12:30am 9.4 7.7 8.4 93 0.5 S 7 9 4 5 1021.5 - 0.0
02/12:00am 9.9 7.9 8.7 92 0.6 S 9 11 5 6 1021.7 1021.7 0.0
 
Date/Time
WST
Temp
°C
App
Temp
°C
Dew
Point
Rel
Hum
%
Delta-T
°C
Wind Press
QNH
hPa
Press
MSL
hPa
Rain
since 9 am
mm
Dir
 
Spd
km/h
Gust
km/h
Spd
kts
Gust
kts
01/11:30pm 10.7 9.4 9.3 91 0.7 S 6 11 3 6 1021.8 - 0.0
01/11:00pm 11.6 10.2 9.6 87 1.0 S 7 9 4 5 1022.1 - 0.0
01/10:30pm 12.0 11.6 9.6 85 1.2 S 2 7 1 4 1022.3 - 0.0
01/10:00pm 11.8 10.5 9.8 87 1.0 S 7 7 4 4 1022.2 - 0.0
01/09:30pm 12.3 10.5 9.5 83 1.4 S 9 9 5 5 1022.1 - 0.0
01/09:00pm 14.2 12.5 9.9 75 2.2 SSW 9 11 5 6 1022.1 1022.1 0.0
01/08:30pm 14.8 13.3 10.4 75 2.3 SSW 9 11 5 6 1022.3 - 0.0
01/08:00pm 15.3 13.6 9.9 70 2.8 SSW 9 11 5 6 1022.2 - 0.0
01/07:30pm 15.6 14.2 9.6 67 3.1 SSW 7 9 4 5 1022.3 - 0.0
01/07:00pm 15.4 13.6 9.4 67 3.1 SW 9 11 5 6 1022.2 - 0.0
01/06:30pm 16.0 12.9 8.7 62 3.7 SSW 15 22 8 12 1022.1 - 0.0
01/06:00pm 16.8 13.6 8.6 58 4.2 SW 15 20 8 11 1021.9 1021.9 0.0
01/05:30pm 17.1 13.9 8.5 57 4.4 SW 15 19 8 10 1021.6 - 0.0
01/05:00pm 17.6 14.0 8.2 54 4.8 WSW 17 22 9 12 1021.3 - 0.0
01/04:30pm 18.5 14.7 7.7 49 5.5 S 17 26 9 14 1021.1 - 0.0
01/04:00pm 18.1 14.3 7.6 50 5.3 SSW 17 22 9 12 1021.0 - 0.0
01/03:30pm 17.8 14.7 7.2 50 5.3 S 13 20 7 11 1021.0 - 0.0
01/03:00pm 18.7 15.2 7.2 47 5.8 S 15 22 8 12 1020.8 1020.8 0.0
01/02:30pm 19.0 15.5 7.3 46 5.9 SSW 15 22 8 12 1020.9 - 0.0
01/02:00pm 18.6 14.2 6.5 45 6.0 SW 19 22 10 12 1021.1 - 0.0
01/01:30pm 18.4 14.7 6.2 45 6.0 S 15 20 8 11 1021.3 - 0.0
01/01:00pm 18.3 14.9 5.8 44 6.1 SSW 13 20 7 11 1021.6 - 0.0
01/12:30pm 18.6 15.2 5.7 42 6.3 S 13 19 7 10 1022.2 - 0.0
01/12:00pm 18.6 14.4 5.7 42 6.3 S 17 24 9 13 1022.7 1022.7 0.0
01/11:30am 18.1 13.8 5.2 42 6.2 S 17 20 9 11 1023.1 - 0.0
01/11:00am 17.7 14.1 4.9 42 6.1 SE 13 20 7 11 1023.2 - 0.0
01/10:30am 17.9 13.7 5.5 44 6.0 SSE 17 20 9 11 1023.4 - 0.0
01/10:00am 17.3 14.7 6.0 47 5.5 SE 9 15 5 8 1023.6 - 0.0
01/09:30am 16.5 14.0 6.5 51 4.9 ESE 9 13 5 7 1023.8 - 0.0
01/09:00am 15.7 12.4 6.2 53 4.6 E 13 15 7 8 1023.6 1023.7 0.0
01/08:30am 14.6 11.0 6.7 59 3.8 E 15 17 8 9 1023.3 - 0.0
01/08:00am 13.7 10.6 7.1 64 3.2 ENE 13 17 7 9 1022.9 - 0.0
01/07:30am 13.1 10.0 7.1 67 2.9 ENE 13 19 7 10 1022.5 - 0.0
01/07:00am 12.4 11.5 7.9 74 2.2 NNW 2 7 1 4 1022.4 - 0.0
01/06:30am 12.7 12.1 7.3 69 2.6 CALM 0 0 0 0 1022.2 - 0.0
01/06:00am 12.4 11.6 8.1 75 2.1 NNW 2 6 1 3 1022.1 1022.1 0.0
01/05:30am 12.1 11.1 8.9 81 1.6 W 4 7 2 4 1021.9 - 0.0
01/05:00am 12.6 11.0 8.6 76 2.0 W 7 11 4 6 1022.0 - 0.0
01/04:30am 12.2 11.8 8.3 77 1.9 CALM 0 0 0 0 1021.7 - 0.0
01/04:00am 11.6 9.6 8.8 83 1.4 WSW 9 9 5 5 1021.5 - 0.0
01/03:30am 11.3 10.0 9.3 87 1.0 SW 6 9 3 5 1021.7 - 0.0
01/03:00am 11.2 10.3 9.4 89 0.9 SW 4 7 2 4 1021.7 1021.7 0.0
01/02:30am 10.9 9.6 9.1 89 0.9 S 6 7 3 4 1021.8 - 0.0
01/02:00am 11.1 9.3 9.5 90 0.8 S 9 11 5 6 1021.9 - 0.0
01/01:30am 11.4 9.5 9.0 85 1.2 S 9 11 5 6 1021.8 - 0.0
01/01:00am 11.0 9.5 9.0 87 1.0 S 7 9 4 5 1021.8 - 0.0
01/12:30am 11.2 9.2 8.8 85 1.2 S 9 13 5 7 1021.8 - 0.0
01/12:00am 10.6 9.1 8.3 86 1.1 SSE 6 11 3 6 1021.9 1021.9 0.0
 
Date/Time
WST
Temp
°C
App
Temp
°C
Dew
Point
Rel
Hum
%
Delta-T
°C
Wind Press
QNH
hPa
Press
MSL
hPa
Rain
since 9 am
mm
Dir
 
Spd
km/h
Gust
km/h
Spd
kts
Gust
kts
30/11:30pm 10.1 8.0 8.2 88 0.9 SSE 9 11 5 6 1021.9 - 0.0
30/11:00pm 10.0 7.9 8.1 88 0.9 SSE 9 11 5 6 1021.9 - 0.0
30/10:30pm 10.0 7.5 8.1 88 0.9 SSE 11 11 6 6 1022.0 - 0.0
30/10:00pm 11.4 9.4 8.8 84 1.3 S 9 11 5 6 1022.1 - 0.0
30/09:30pm 13.3 10.6 9.1 76 2.1 S 13 15 7 8 1022.1 - 0.0
30/09:00pm 14.2 11.4 8.6 69 2.8 S 13 17 7 9 1022.1 1022.1 0.0
30/08:30pm 14.7 11.5 8.5 66 3.1 S 15 19 8 10 1021.8 - 0.0
30/08:00pm 15.1 11.8 8.1 63 3.5 S 15 17 8 9 1021.6 - 0.0
30/07:30pm 14.8 11.4 7.7 62 3.5 S 15 22 8 12 1021.5 - 0.0
30/07:00pm 15.3 12.2 7.4 59 3.9 SSW 13 15 7 8 1021.1 - 0.0
30/06:30pm 15.6 11.7 7.3 57 4.1 SSW 17 20 9 11 1020.8 - 0.0
30/06:00pm 16.1 13.0 7.4 56 4.3 SSW 13 17 7 9 1020.5 1020.5 0.0
30/05:30pm 17.2 13.6 6.9 50 5.1 WSW 15 20 8 11 1020.3 - 0.0
30/05:00pm 18.1 14.1 5.0 42 6.3 S 15 19 8 10 1020.1 - 0.0
30/04:30pm 18.5 14.5 5.0 41 6.5 S 15 19 8 10 1020.0 - 0.0
30/04:00pm 18.2 14.2 4.8 41 6.4 SW 15 19 8 10 1020.0 - 0.0
30/03:30pm 17.6 13.6 4.8 42 6.1 S 15 20 8 11 1019.9 - 0.0
30/03:00pm 18.9 14.6 5.3 41 6.6 S 17 24 9 13 1019.8 1019.8 0.0
30/02:30pm 19.6 14.8 4.7 37 7.2 SW 19 22 10 12 1019.7 - 0.0
30/02:00pm 18.8 14.9 5.4 41 6.5 S 15 19 8 10 1019.9 - 0.0
30/01:30pm 18.0 13.2 4.8 41 6.3 S 19 28 10 15 1019.9 - 0.0
30/01:00pm 17.9 13.4 4.4 41 6.4 S 17 24 9 13 1020.2 - 0.0
30/12:30pm 18.0 13.9 4.5 41 6.4 S 15 22 8 12 1020.4 - 0.0
30/12:00pm 18.3 12.9 4.4 39 6.6 SSE 22 32 12 17 1020.8 1020.8 0.0
30/11:30am 17.8 11.6 4.2 40 6.4 S 26 35 14 19 1020.9 - 0.0
30/11:00am 17.4 11.6 4.2 41 6.2 SSE 24 33 13 18 1021.0 - 0.0
30/10:30am 17.8 11.8 5.4 44 6.0 SSE 26 33 14 18 1021.1 - 0.0
30/10:00am 16.0 11.8 5.8 50 4.9 SSE 17 22 9 12 1021.2 - 0.0
30/09:30am 15.3 11.2 6.4 55 4.3 SSE 17 24 9 13 1021.2 - 0.0
30/09:00am 14.9 11.9 7.6 61 3.6 SSE 13 17 7 9 1021.1 1021.1 2.4
30/08:30am 14.2 11.5 7.2 63 3.4 S 11 13 6 7 1020.9 - 2.4
30/08:00am 13.4 10.4 7.7 68 2.8 SSE 13 19 7 10 1020.5 - 2.4
30/07:30am 12.4 10.3 8.1 75 2.1 SSE 9 13 5 7 1019.9 - 2.4
30/07:00am 11.8 9.2 9.2 84 1.3 SE 13 17 7 9 1019.3 - 2.4
30/06:30am 11.9 9.9 10.1 89 0.9 SSE 11 13 6 7 1019.1 - 2.4
30/06:00am 11.5 9.9 10.1 91 0.7 S 9 13 5 7 1019.0 1019.0 2.4
30/05:30am 11.4 9.9 10.4 94 0.5 SE 9 13 5 7 1018.6 - 2.4
30/05:00am 11.6 9.9 10.0 90 0.8 SSE 9 13 5 7 1018.3 - 2.4
30/04:30am 11.5 10.4 10.7 95 0.4 S 7 9 4 5 1018.1 - 2.4
30/04:00am 11.0 9.8 10.2 95 0.4 SSE 7 9 4 5 1017.6 - 2.4
30/03:30am 11.6 10.0 10.2 91 0.7 SSE 9 11 5 6 1017.4 - 2.4
30/03:00am 12.7 10.6 11.0 89 0.9 S 13 17 7 9 1017.3 1017.3 2.4
30/02:30am 13.6 10.8 11.5 87 1.1 S 17 22 9 12 1017.3 - 2.4
30/02:00am 13.8 11.7 12.5 92 0.7 S 15 19 8 10 1017.0 - 2.2
30/01:30am 14.1 12.0 12.4 89 0.9 SSW 15 19 8 10 1016.9 - 2.2
30/01:00am 14.0 11.7 12.9 93 0.6 S 17 22 9 12 1016.7 - 2.2
30/12:41am 14.1 11.9 13.2 94 0.5 S 17 19 9 10 1016.7 - 2.2
30/12:30am 14.2 12.7 13.1 93 0.6 S 13 20 7 11 1016.6 - 2.0
30/12:09am 14.4 12.5 13.1 92 0.7 SSW 15 22 8 12 1016.5 - 2.0
30/12:00am 14.5 13.0 13.0 91 0.8 S 13 22 7 12 1016.3 1016.3 1.8
 
Date/Time
WST
Temp
°C
App
Temp
°C
Dew
Point
Rel
Hum
%
Delta-T
°C
Wind Press
QNH
hPa
Press
MSL
hPa
Rain
since 9 am
mm
Dir
 
Spd
km/h
Gust
km/h
Spd
kts
Gust
kts
29/11:30pm 14.6 13.9 13.2 91 0.8 SSW 9 13 5 7 1016.1 - 1.8
29/11:00pm 14.6 13.4 12.8 89 1.0 SSW 11 15 6 8 1016.3 - 1.8
29/10:30pm 14.7 12.9 13.3 91 0.8 S 15 19 8 10 1016.3 - 1.8
29/10:00pm 15.0 10.9 13.7 92 0.7 SSW 28 39 15 21 1016.1 - 1.8
29/09:38pm 15.6 8.2 14.2 91 0.8 SSW 46 54 25 29 1015.8 - 1.6
29/09:32pm 16.0 11.6 14.2 89 1.0 WSW 30 48 16 26 1015.6 - 1.6
29/09:30pm 16.1 12.5 14.3 89 1.0 WSW 26 43 14 23 1015.5 - 1.6
29/09:25pm 16.2 13.4 14.4 89 1.0 W 22 37 12 20 1015.5 - 1.6
29/09:00pm 16.2 13.1 14.6 90 0.9 W 24 20 13 11 1015.5 1015.5 1.4
29/08:36pm 17.0 11.8 14.6 86 1.4 WSW 35 54 19 29 1015.4 - 0.8
29/08:34pm 18.5 12.4 13.0 70 3.1 WSW 37 54 20 29 1015.1 - 0.8
29/08:30pm 18.8 14.9 12.1 65 3.7 W 24 39 13 21 1015.0 - 0.8
29/08:00pm 18.5 15.4 11.6 64 3.8 W 19 33 10 18 1015.0 - 0.8
29/07:30pm 18.5 14.6 10.7 60 4.2 W 22 32 12 17 1015.0 - 0.8
29/07:00pm 18.7 15.2 10.3 58 4.5 W 19 32 10 17 1014.9 - 0.8
29/06:30pm 18.9 15.3 9.9 56 4.8 W 19 28 10 15 1014.8 - 0.8
29/06:00pm 18.5 15.0 10.1 58 4.5 W 19 28 10 15 1014.5 1014.5 0.8
29/05:30pm 18.7 15.0 10.1 57 4.6 W 20 32 11 17 1014.5 - 0.8
29/05:00pm 19.3 14.6 9.2 52 5.3 W 24 37 13 20 1014.4 - 0.8
29/04:30pm 20.2 15.8 10.4 53 5.3 W 24 39 13 21 1014.6 - 0.8

Other Formats:

Comma delimited format used in spreadsheet applications
http://www.bom.gov.au/fwo/IDW60801/IDW60801.94610.axf

JavaScript Object Notation format (JSON) in row-major order
http://www.bom.gov.au/fwo/IDW60801/IDW60801.94610.json